Terminal Aerodrome Forecast
Issued by NWS Wilmington, NC

Home | Current Version | Previous Version | Text Only | Print | Product List | Glossary On
Versions: 1 2 3 4 5 6 7 8 9 10 11 12 13
000
FTUS42 KILM 172335
TAFLBT
TAF
KLBT 172335Z 1800/1824 00000KT P6SM SKC
      TEMPO 1808/1812 5SM BR
     FM181400 20006KT P6SM SCT050 BKN100
     FM182000 21012KT P6SM BKN050=

USA.gov is the U.S. government's official web portal to all federal, state and local government web resources and services.